Time;durP1;ratioP1;P1;durP2;ratioP2;P2;SDS_P1;SDS_P2;PMS_P1;PMS_P2;Temp;Humidity;BMP_temperature;BMP_pressure;BME280_temperature;BME280_humidity;BME280_pressure;Samples;Min_cycle;Max_cycle;Signal;HPM_P1;HPM_P2
2023/05/21 00:00:37;;;;;;;;;;;;;;;26.29;44.38;93768.88;5041300;28;6984;-64
2023/05/21 00:03:31;;;;;;;;;;;;;;;26.32;44.56;93773.34;5038679;28;9019;-64
2023/05/21 00:06:19;;;;;;;;;;;;;;;26.28;44.50;93768.13;5043260;28;8704;-64
2023/05/21 00:09:03;;;;;;;;;;;;;;;26.29;44.92;93768.88;5032455;28;7030;-64
2023/05/21 00:11:29;;;;;;;;;;;;;;;26.28;44.84;93768.13;5031354;28;8464;-64
2023/05/21 00:13:55;;;;;;;;;;;;;;;26.27;44.56;93768.66;5040425;28;9402;-64
2023/05/21 00:16:21;;;;;;;;;;;;;;;26.26;44.49;93765.16;5036799;28;9067;-64
2023/05/21 00:18:53;;;;;;;;;;;;;;;26.27;45.11;93765.91;5015212;28;9075;-65
2023/05/21 00:21:28;;;;;;;;;;;;;;;26.27;44.85;93760.41;5040472;28;7310;-64
2023/05/21 00:23:57;;;;;;;;;;;;;;;26.27;45.10;93754.88;5043394;28;8820;-64
2023/05/21 00:26:41;;;;;;;;;;;;;;;26.27;44.31;93757.63;5027084;28;9521;-64
2023/05/21 00:29:14;;;;;;;;;;;;;;;26.27;44.45;93760.41;5051404;28;9059;-64
2023/05/21 00:31:56;;;;;;;;;;;;;;;26.26;44.33;93756.16;5031436;28;9661;-64
2023/05/21 00:34:53;;;;;;;;;;;;;;;26.27;44.47;93757.63;5044318;28;9003;-64
2023/05/21 00:37:33;;;;;;;;;;;;;;;26.28;44.32;93748.09;5009990;28;9236;-64
2023/05/21 00:40:01;;;;;;;;;;;;;;;26.26;44.60;93753.38;4986486;28;9417;-64
2023/05/21 00:42:38;;;;;;;;;;;;;;;26.26;44.76;93753.38;5010827;28;7268;-65
2023/05/21 00:45:07;;;;;;;;;;;;;;;26.24;44.58;93747.66;5001843;28;7109;-65
2023/05/21 00:47:34;;;;;;;;;;;;;;;26.25;45.03;93749.16;4992381;28;7266;-64
2023/05/21 00:50:03;;;;;;;;;;;;;;;26.24;44.33;93744.91;5010477;28;7034;-64
2023/05/21 00:52:44;;;;;;;;;;;;;;;26.24;44.53;93745.66;5007961;28;9034;-64
2023/05/21 00:55:21;;;;;;;;;;;;;;;26.25;44.37;93749.16;5007583;28;7001;-64
2023/05/21 00:58:21;;;;;;;;;;;;;;;26.25;44.43;93751.91;4994762;28;8750;-64
2023/05/21 01:01:24;;;;;;;;;;;;;;;26.22;44.74;93742.69;4940281;28;9497;-64
2023/05/21 01:03:57;;;;;;;;;;;;;;;26.24;44.95;93742.16;4912060;29;9036;-64
2023/05/21 01:06:42;;;;;;;;;;;;;;;26.24;44.40;93736.63;4893430;29;9396;-64
2023/05/21 01:09:28;;;;;;;;;;;;;;;26.22;44.62;93736.44;4917146;29;7374;-64
2023/05/21 01:12:15;;;;;;;;;;;;;;;26.22;44.75;93730.91;4897696;29;7293;-64
2023/05/21 01:14:42;;;;;;;;;;;;;;;26.22;44.61;93728.16;4902332;29;7054;-64
2023/05/21 01:17:44;;;;;;;;;;;;;;;26.23;44.69;93735.16;4902075;29;8775;-64
2023/05/21 01:20:41;;;;;;;;;;;;;;;26.22;44.98;93730.91;4902587;29;7009;-64
2023/05/21 01:23:53;;;;;;;;;;;;;;;26.22;44.18;93725.41;4909422;29;7129;-65
2023/05/21 01:26:20;;;;;;;;;;;;;;;26.21;44.53;93726.69;4805943;29;7282;-64
2023/05/21 01:29:11;;;;;;;;;;;;;;;26.22;44.18;93730.91;4806891;29;7052;-64
2023/05/21 01:32:08;;;;;;;;;;;;;;;26.21;44.38;93730.16;4806184;29;7271;-64
2023/05/21 01:35:14;;;;;;;;;;;;;;;26.20;44.64;93725.19;4807643;29;9080;-64
2023/05/21 01:37:52;;;;;;;;;;;;;;;26.17;44.81;93722.22;4872231;29;7389;-64
2023/05/21 01:44:33;;;;;;;;;;;;;;;26.20;44.72;93716.94;4927577;29;7316;-64
2023/05/21 01:47:13;;;;;;;;;;;;;;;26.19;44.36;93718.22;4929511;29;7505;-64
2023/05/21 01:50:17;;;;;;;;;;;;;;;26.18;44.86;93720.22;4934469;29;8256;-64
2023/05/21 01:53:06;;;;;;;;;;;;;;;26.18;44.73;93717.47;4936821;28;9216;-64
2023/05/21 01:55:34;;;;;;;;;;;;;;;26.16;44.40;93717.97;4935896;29;8505;-64
2023/05/21 01:58:00;;;;;;;;;;;;;;;26.16;44.94;93714.50;4917947;29;8906;-64
2023/05/21 02:00:41;;;;;;;;;;;;;;;26.16;44.28;93720.72;4919993;29;7184;-64
2023/05/21 02:03:19;;;;;;;;;;;;;;;26.15;44.76;93721.28;4974172;28;7500;-64
2023/05/21 02:05:58;;;;;;;;;;;;;;;26.16;44.77;93720.00;5044712;28;9436;-64
2023/05/21 02:08:37;;;;;;;;;;;;;;;26.16;45.03;93717.25;5040495;28;9048;-64
2023/05/21 02:11:16;;;;;;;;;;;;;;;26.15;44.62;93713.00;5037665;28;9161;-64
2023/05/21 02:13:47;;;;;;;;;;;;;;;26.15;44.88;93719.25;5038176;28;9105;-64
2023/05/21 02:16:21;;;;;;;;;;;;;;;26.12;44.66;93714.06;5027740;28;9108;-64
2023/05/21 02:19:17;;;;;;;;;;;;;;;26.12;44.38;93709.28;5047916;28;7379;-64
2023/05/21 02:21:48;;;;;;;;;;;;;;;26.13;43.93;93710.78;5036996;28;7361;-64
2023/05/21 02:25:04;;;;;;;;;;;;;;;26.13;44.67;93713.53;5051929;28;8449;-64
2023/05/21 02:27:33;;;;;;;;;;;;;;;26.14;44.70;93720.53;4976840;28;7256;-64
2023/05/21 02:30:10;;;;;;;;;;;;;;;26.13;44.18;93712.78;4983261;28;7061;-64
2023/05/21 02:32:47;;;;;;;;;;;;;;;26.12;44.91;93703.78;4970361;28;7127;-64
2023/05/21 02:35:31;;;;;;;;;;;;;;;26.13;44.64;93699.75;4993923;28;9160;-64
2023/05/21 02:38:08;;;;;;;;;;;;;;;26.11;44.81;93701.56;4969393;28;8972;-64
2023/05/21 02:41:12;;;;;;;;;;;;;;;26.11;44.92;93699.56;4992905;28;7317;-64
2023/05/21 02:43:39;;;;;;;;;;;;;;;26.08;44.55;93695.09;4975629;28;9262;-64
2023/05/21 02:46:29;;;;;;;;;;;;;;;26.11;44.65;93705.06;4986978;28;7212;-65
2023/05/21 02:52:38;;;;;;;;;;;;;;;26.10;44.81;93702.81;4911053;29;7272;-65
2023/05/21 02:55:34;;;;;;;;;;;;;;;26.11;44.04;93699.56;4897053;29;7374;-65
2023/05/21 02:58:02;;;;;;;;;;;;;;;26.10;43.93;93706.31;4897019;29;9516;-64
2023/05/21 03:00:46;;;;;;;;;;;;;;;26.09;44.77;93701.34;4882622;29;7004;-65
2023/05/21 03:04:02;;;;;;;;;;;;;;;26.08;44.84;93699.81;4878274;29;7501;-64
2023/05/21 03:07:00;;;;;;;;;;;;;;;26.08;43.96;93695.09;4932028;29;9465;-64
2023/05/21 03:09:27;;;;;;;;;;;;;;;26.09;44.12;93702.09;4889387;29;9153;-64
2023/05/21 03:12:07;;;;;;;;;;;;;;;26.07;43.67;93701.09;4883959;29;8075;-64
2023/05/21 03:14:34;;;;;;;;;;;;;;;26.08;44.32;93706.13;4871945;29;8991;-64
2023/05/21 03:17:02;;;;;;;;;;;;;;;26.07;44.32;93695.59;4889742;29;9015;-64
2023/05/21 03:19:39;;;;;;;;;;;;;;;26.07;44.63;93696.34;4888736;29;9072;-64
2023/05/21 03:22:06;;;;;;;;;;;;;;;26.09;44.54;93702.09;4879911;29;9204;-64
2023/05/21 03:24:45;;;;;;;;;;;;;;;26.07;44.22;93706.63;4877245;29;9226;-64
2023/05/21 03:27:23;;;;;;;;;;;;;;;26.10;44.33;93702.81;4892780;29;8818;-64
2023/05/21 03:30:04;;;;;;;;;;;;;;;26.10;44.73;93708.31;4912127;29;8705;-64
2023/05/21 03:33:08;;;;;;;;;;;;;;;26.09;44.75;93709.63;4913807;29;7165;-64
2023/05/21 03:35:38;;;;;;;;;;;;;;;26.07;44.47;93706.63;4988168;28;9228;-64
2023/05/21 03:38:58;;;;;;;;;;;;;;;26.08;43.95;93710.84;4965850;28;7127;-64
2023/05/21 03:41:39;;;;;;;;;;;;;;;26.06;43.94;93705.13;4943891;29;8802;-64
2023/05/21 03:44:05;;;;;;;;;;;;;;;26.06;44.14;93707.88;4922360;29;9319;-64
2023/05/21 03:47:21;;;;;;;;;;;;;;;26.03;44.01;93704.16;4959996;28;7639;-64
2023/05/21 03:53:27;;;;;;;;;;;;;;;26.01;44.35;93712.22;4952941;29;7112;-64
2023/05/21 03:55:58;;;;;;;;;;;;;;;26.01;44.15;93706.72;4952213;28;9625;-64
2023/05/21 03:58:29;;;;;;;;;;;;;;;26.03;43.95;93714.47;4952956;29;8978;-64
2023/05/21 04:01:33;;;;;;;;;;;;;;;26.02;43.94;93724.00;4951686;28;9053;-64
2023/05/21 04:04:37;;;;;;;;;;;;;;;26.01;44.19;93722.53;4945125;29;7587;-64
2023/05/21 04:07:14;;;;;;;;;;;;;;;26.01;44.83;93723.25;4944234;28;7231;-64
2023/05/21 04:10:13;;;;;;;;;;;;;;;26.01;44.86;93726.00;4941013;28;7040;-64
2023/05/21 04:12:42;;;;;;;;;;;;;;;26.01;43.88;93728.03;4861888;29;8972;-64
2023/05/21 04:15:59;;;;;;;;;;;;;;;26.01;44.21;93739.78;4881096;29;7236;-64
2023/05/21 04:18:25;;;;;;;;;;;;;;;26.01;44.15;93736.31;4783773;29;1225738;-64
2023/05/21 04:21:13;;;;;;;;;;;;;;;26.00;44.85;93734.81;4840742;29;7027;-64
2023/05/21 04:23:39;;;;;;;;;;;;;;;26.01;44.09;93739.06;4817564;29;9564;-64
2023/05/21 04:26:24;;;;;;;;;;;;;;;25.98;44.17;93742.88;4850425;29;7476;-64
2023/05/21 04:28:58;;;;;;;;;;;;;;;25.98;43.95;93743.59;4876544;29;7138;-65
2023/05/21 04:31:25;;;;;;;;;;;;;;;25.98;44.34;93742.88;4853403;29;9104;-64
2023/05/21 04:33:51;;;;;;;;;;;;;;;25.99;44.21;93756.09;4850988;29;7055;-64
2023/05/21 04:36:17;;;;;;;;;;;;;;;26.00;44.43;93757.59;4859181;29;9033;-64
2023/05/21 04:38:43;;;;;;;;;;;;;;;25.99;44.88;93753.34;4848667;29;9368;-64
2023/05/21 04:41:13;;;;;;;;;;;;;;;25.99;44.25;93756.09;4871565;29;7038;-64
2023/05/21 04:43:42;;;;;;;;;;;;;;;25.99;43.81;93763.66;4872526;29;8738;-64
2023/05/21 04:46:08;;;;;;;;;;;;;;;26.00;44.37;93759.59;4855694;29;9214;-64
2023/05/21 04:48:34;;;;;;;;;;;;;;;25.99;44.62;93752.63;4895394;29;7337;-64
2023/05/21 04:51:04;;;;;;;;;;;;;;;26.00;43.92;93756.84;4913468;29;7093;-64
2023/05/21 04:53:30;;;;;;;;;;;;;;;25.99;44.73;93764.38;4929269;28;9529;-64
2023/05/21 04:55:58;;;;;;;;;;;;;;;25.99;44.13;93761.63;5039529;28;7006;-65
2023/05/21 04:58:27;;;;;;;;;;;;;;;25.97;44.08;93761.41;5044263;28;7219;-64
2023/05/21 05:00:54;;;;;;;;;;;;;;;25.98;44.27;93768.41;5021586;28;7021;-64
2023/05/21 05:03:39;;;;;;;;;;;;;;;25.97;43.97;93761.41;5032696;28;8474;-64
2023/05/21 05:06:28;;;;;;;;;;;;;;;25.98;43.91;93767.66;5029894;28;8703;-64
2023/05/21 05:12:17;;;;;;;;;;;;;;;25.93;44.50;93768.50;5034517;28;8796;-64
2023/05/21 05:14:56;;;;;;;;;;;;;;;25.94;44.38;93772.75;5029952;28;9005;-64
2023/05/21 05:17:23;;;;;;;;;;;;;;;25.94;44.81;93767.25;5047669;28;7071;-64
2023/05/21 05:20:18;;;;;;;;;;;;;;;25.94;44.23;93770.00;5028130;28;9026;-64
2023/05/21 05:23:42;;;;;;;;;;;;;;;25.93;44.40;93777.50;4966640;28;9153;-64
2023/05/21 05:26:25;;;;;;;;;;;;;;;25.92;44.59;93765.00;4982302;28;7051;-64
2023/05/21 05:29:00;;;;;;;;;;;;;;;25.92;45.07;93767.03;4965748;28;8993;-64
2023/05/21 05:31:36;;;;;;;;;;;;;;;25.92;45.07;93769.78;4969932;28;9003;-64
2023/05/21 05:34:12;;;;;;;;;;;;;;;25.90;45.06;93764.78;4974077;28;7362;-64
2023/05/21 05:36:39;;;;;;;;;;;;;;;25.91;44.51;93763.53;4972019;28;7259;-63
2023/05/21 05:39:15;;;;;;;;;;;;;;;25.93;44.35;93765.75;4988157;28;9303;-64
2023/05/21 05:41:43;;;;;;;;;;;;;;;25.95;44.49;93768.72;4973360;28;7125;-64
2023/05/21 05:44:09;;;;;;;;;;;;;;;25.94;44.36;93776.25;4962075;28;7382;-64
2023/05/21 05:46:39;;;;;;;;;;;;;;;25.94;44.84;93770.75;4990787;28;6983;-65
2023/05/21 05:49:17;;;;;;;;;;;;;;;25.94;44.73;93761.72;4991299;28;7029;-64
2023/05/21 05:52:22;;;;;;;;;;;;;;;25.95;43.84;93768.72;4984975;28;8790;-64
2023/05/21 05:54:48;;;;;;;;;;;;;;;25.93;44.19;93772.00;4974140;28;7510;-64
2023/05/21 05:57:34;;;;;;;;;;;;;;;25.94;44.44;93778.25;4973283;28;9457;-65
2023/05/21 06:00:32;;;;;;;;;;;;;;;25.92;43.94;93770.53;5022101;28;7391;-65
2023/05/21 06:03:06;;;;;;;;;;;;;;;25.91;44.48;93768.28;4990518;28;7909;-64
2023/05/21 06:05:52;;;;;;;;;;;;;;;25.93;44.24;93779.50;4973719;28;7236;-63
2023/05/21 06:08:39;;;;;;;;;;;;;;;25.93;44.02;93772.00;4983591;28;7452;-63
2023/05/21 06:11:37;;;;;;;;;;;;;;;25.92;44.32;93778.78;4982589;28;9032;-65
2023/05/21 06:14:04;;;;;;;;;;;;;;;25.94;44.16;93781.00;4927317;28;9547;-65
2023/05/21 06:16:41;;;;;;;;;;;;;;;25.92;44.87;93781.56;4933976;28;7071;-64
2023/05/21 06:19:15;;;;;;;;;;;;;;;25.90;44.99;93773.03;4931449;28;7421;-64
2023/05/21 06:21:52;;;;;;;;;;;;;;;25.91;45.10;93771.78;4937843;28;7627;-65
2023/05/21 06:24:37;;;;;;;;;;;;;;;25.93;44.47;93771.25;4932889;28;7052;-65
2023/05/21 06:27:03;;;;;;;;;;;;;;;25.93;44.56;93771.25;4928280;28;8712;-65
2023/05/21 06:29:39;;;;;;;;;;;;;;;25.93;45.18;93776.75;4952071;28;7269;-65
2023/05/21 06:32:08;;;;;;;;;;;;;;;25.94;45.06;93773.50;4930467;28;9608;-65
2023/05/21 06:34:50;;;;;;;;;;;;;;;25.96;44.61;93784.72;4949955;28;7246;-65
2023/05/21 06:37:42;;;;;;;;;;;;;;;25.95;44.97;93777.72;4948672;28;9311;-65
2023/05/21 06:40:46;;;;;;;;;;;;;;;25.97;44.61;93779.94;4948264;28;7145;-65
2023/05/21 06:43:31;;;;;;;;;;;;;;;25.97;44.59;93772.41;4971653;28;7071;-65
2023/05/21 06:45:57;;;;;;;;;;;;;;;25.96;44.69;93770.94;4972295;28;7040;-65
2023/05/21 06:48:40;;;;;;;;;;;;;;;25.97;44.41;93780.69;4957632;28;8266;-65
2023/05/21 06:51:08;;;;;;;;;;;;;;;25.98;44.86;93776.69;5028677;28;9062;-65
2023/05/21 06:53:41;;;;;;;;;;;;;;;25.96;44.40;93779.22;5047632;28;7036;-65
2023/05/21 06:56:14;;;;;;;;;;;;;;;25.94;44.87;93784.53;5041621;28;8233;-65
2023/05/21 06:58:49;;;;;;;;;;;;;;;25.99;44.94;93780.91;5047883;28;7211;-64
2023/05/21 07:01:41;;;;;;;;;;;;;;;25.98;44.65;93779.44;5037598;28;8770;-64
2023/05/21 07:04:09;;;;;;;;;;;;;;;26.00;45.16;93787.16;5046445;28;9131;-65
2023/05/21 07:06:42;;;;;;;;;;;;;;;25.98;44.90;93778.69;5035981;28;7028;-64
2023/05/21 07:09:14;;;;;;;;;;;;;;;26.00;45.29;93787.91;5025735;28;7632;-64
2023/05/21 07:11:43;;;;;;;;;;;;;;;25.99;44.96;93782.94;5023392;28;7034;-65
2023/05/21 07:14:38;;;;;;;;;;;;;;;26.00;44.77;93790.66;5047218;28;7226;-65
2023/05/21 07:17:05;;;;;;;;;;;;;;;26.01;44.62;93783.88;4976477;28;7120;-65
2023/05/21 07:20:06;;;;;;;;;;;;;;;26.05;44.53;93789.84;4966456;28;8738;-65
2023/05/21 07:22:43;;;;;;;;;;;;;;;26.05;44.61;93783.56;4928660;29;9002;-64
2023/05/21 07:25:11;;;;;;;;;;;;;;;26.05;45.18;93778.81;4911822;29;9305;-65
2023/05/21 07:27:47;;;;;;;;;;;;;;;26.09;44.92;93786.78;4920521;29;7315;-64
2023/05/21 07:30:13;;;;;;;;;;;;;;;26.07;45.31;93778.28;4923451;29;7492;-64
2023/05/21 07:33:08;;;;;;;;;;;;;;;26.10;45.04;93774.47;4930945;28;8196;-65
2023/05/21 07:35:36;;;;;;;;;;;;;;;26.09;45.81;93767.50;4874903;29;7045;-64
2023/05/21 07:38:23;;;;;;;;;;;;;;;26.11;45.76;93775.97;4881934;29;7266;-65
2023/05/21 07:41:33;;;;;;;;;;;;;;;26.12;45.56;93769.91;4860925;29;7113;-65
2023/05/21 07:44:10;;;;;;;;;;;;;;;26.15;45.53;93770.88;4877284;29;7046;-65
2023/05/21 07:46:48;;;;;;;;;;;;;;;26.11;45.78;93770.47;4877133;29;7080;-65
2023/05/21 07:49:23;;;;;;;;;;;;;;;26.11;45.81;93765.69;4877231;29;7279;-66
2023/05/21 07:52:05;;;;;;;;;;;;;;;26.15;45.83;93771.63;4877646;29;7337;-65
2023/05/21 07:54:40;;;;;;;;;;;;;;;26.16;45.92;93775.84;4906552;29;8743;-65
2023/05/21 07:57:37;;;;;;;;;;;;;;;26.17;45.67;93774.59;4928092;28;7049;-65
2023/05/21 08:00:08;;;;;;;;;;;;;;;26.16;45.65;93777.91;4876290;29;7377;-65
2023/05/21 08:02:43;;;;;;;;;;;;;;;26.20;45.52;93785.84;4878922;29;7250;-65
2023/05/21 08:05:29;;;;;;;;;;;;;;;26.21;45.49;93787.34;4889960;29;8711;-65
2023/05/21 08:07:56;;;;;;;;;;;;;;;26.19;45.16;93787.13;4893308;29;7694;-65
2023/05/21 08:10:42;;;;;;;;;;;;;;;26.20;46.11;93783.06;4899250;29;9016;-65
2023/05/21 08:13:18;;;;;;;;;;;;;;;26.18;45.92;93778.09;4927823;28;7336;-65
2023/05/21 08:16:04;;;;;;;;;;;;;;;26.22;46.00;93786.78;4945259;28;7193;-64
2023/05/21 08:18:29;;;;;;;;;;;;;;;26.23;45.31;93788.25;4936666;29;7447;-65
2023/05/21 08:20:59;;;;;;;;;;;;;;;26.22;45.88;93780.53;4948384;28;9044;-65
2023/05/21 08:23:26;;;;;;;;;;;;;;;26.22;45.79;93786.03;4936471;28;7202;-65
2023/05/21 08:26:02;;;;;;;;;;;;;;;26.20;45.88;93777.56;4939234;28;7300;-64
2023/05/21 08:28:40;;;;;;;;;;;;;;;26.23;45.79;93784.78;4926451;29;7445;-65
2023/05/21 08:31:39;;;;;;;;;;;;;;;26.23;45.47;93787.53;4937859;28;9364;-65
2023/05/21 08:34:51;;;;;;;;;;;;;;;26.26;46.02;93786.47;4879659;29;7269;-65
2023/05/21 08:37:27;;;;;;;;;;;;;;;26.27;45.07;93787.97;4898882;29;7322;-65
2023/05/21 08:40:40;;;;;;;;;;;;;;;26.27;45.54;93787.97;4915793;29;9072;-65
2023/05/21 08:43:17;;;;;;;;;;;;;;;26.25;45.16;93788.50;4915679;29;9086;-66
2023/05/21 08:45:53;;;;;;;;;;;;;;;26.26;45.47;93792.72;4910741;29;9052;-66
2023/05/21 08:48:30;;;;;;;;;;;;;;;26.26;45.12;93789.22;4911065;29;9163;-65
2023/05/21 08:51:35;;;;;;;;;;;;;;;26.26;45.47;93789.22;4911052;29;7172;-65
2023/05/21 08:54:12;;;;;;;;;;;;;;;26.26;45.15;93787.22;4910744;29;7066;-66
2023/05/21 08:56:53;;;;;;;;;;;;;;;26.26;45.25;93786.47;4910560;29;8940;-65
2023/05/21 08:59:50;;;;;;;;;;;;;;;26.29;45.04;93793.69;4927675;29;8319;-65
2023/05/21 09:02:18;;;;;;;;;;;;;;;26.30;45.01;93795.91;4903818;29;8940;-66
2023/05/21 09:04:57;;;;;;;;;;;;;;;26.29;44.72;93793.69;4909334;29;7056;-66
2023/05/21 09:08:08;;;;;;;;;;;;;;;26.29;45.34;93793.69;4903044;29;7022;-65
2023/05/21 09:10:41;;;;;;;;;;;;;;;26.31;44.45;93793.91;4894850;29;9084;-66
2023/05/21 09:13:11;;;;;;;;;;;;;;;26.33;44.10;93789.34;4885992;29;6857;-65
2023/05/21 09:15:42;;;;;;;;;;;;;;;26.33;45.21;93786.59;4907782;29;10058;-66
2023/05/21 09:18:11;;;;;;;;;;;;;;;26.34;45.09;93793.56;4896449;29;9172;-65
2023/05/21 09:20:37;;;;;;;;;;;;;;;26.34;45.16;93799.09;4913559;29;7046;-65
2023/05/21 09:23:16;;;;;;;;;;;;;;;26.32;45.09;93798.16;4907991;29;7053;-66
2023/05/21 09:25:48;;;;;;;;;;;;;;;26.35;44.56;93800.59;4906539;29;8689;-66
2023/05/21 09:28:28;;;;;;;;;;;;;;;26.34;44.96;93795.63;4898012;29;8949;-65
2023/05/21 09:30:54;;;;;;;;;;;;;;;26.34;45.58;93801.84;4910236;29;9802;-66
2023/05/21 09:33:24;;;;;;;;;;;;;;;26.36;44.43;93801.34;4913526;29;7156;-66
2023/05/21 09:35:53;;;;;;;;;;;;;;;26.36;45.06;93804.09;4895724;29;7355;-66
2023/05/21 09:38:22;;;;;;;;;;;;;;;26.37;44.55;93805.56;4929833;28;7291;-65
2023/05/21 09:40:49;;;;;;;;;;;;;;;26.36;44.77;93793.78;4944846;28;7044;-65
2023/05/21 09:43:17;;;;;;;;;;;;;;;26.35;44.83;93788.81;4950448;28;8672;-65
2023/05/21 09:45:55;;;;;;;;;;;;;;;26.36;44.66;93793.78;4964928;28;7318;-65
2023/05/21 09:48:56;;;;;;;;;;;;;;;26.41;44.84;93803.22;5015938;28;7301;-65
2023/05/21 09:51:57;;;;;;;;;;;;;;;26.41;44.81;93797.72;5045464;28;7165;-65
2023/05/21 09:54:40;;;;;;;;;;;;;;;26.40;44.49;93794.22;4973787;28;8948;-65
2023/05/21 09:57:30;;;;;;;;;;;;;;;26.41;44.50;93797.72;4991587;28;7119;-66
2023/05/21 10:00:24;;;;;;;;;;;;;;;26.42;44.21;93802.72;4974857;28;7029;-66
2023/05/21 10:03:11;;;;;;;;;;;;;;;26.41;44.31;93798.47;4967375;28;7076;-66
2023/05/21 10:05:58;;;;;;;;;;;;;;;26.41;44.00;93797.72;4980281;28;7047;-66
2023/05/21 10:08:30;;;;;;;;;;;;;;;26.42;44.51;93799.22;4967323;28;7094;-66
2023/05/21 10:11:22;;;;;;;;;;;;;;;26.43;44.19;93789.66;4963708;28;7230;-66
2023/05/21 10:14:03;;;;;;;;;;;;;;;26.44;44.62;93796.66;4962165;28;7267;-66
2023/05/21 10:16:41;;;;;;;;;;;;;;;26.45;44.35;93790.59;4975996;28;7273;-65
2023/05/21 10:19:22;;;;;;;;;;;;;;;26.46;44.13;93786.59;4992698;28;7409;-64
2023/05/21 10:21:56;;;;;;;;;;;;;;;26.48;43.99;93794.31;4987130;28;8895;-65
2023/05/21 10:24:34;;;;;;;;;;;;;;;26.50;44.25;93787.00;4968081;28;8691;-66
2023/05/21 10:27:12;;;;;;;;;;;;;;;26.48;44.44;93784.03;4985016;28;7262;-66
2023/05/21 10:29:57;;;;;;;;;;;;;;;26.49;44.55;93782.75;4969439;28;7264;-66
2023/05/21 10:32:39;;;;;;;;;;;;;;;26.52;45.01;93791.97;5045419;28;8758;-66
2023/05/21 10:35:08;;;;;;;;;;;;;;;26.53;44.60;93790.72;5028730;28;9048;-65
2023/05/21 10:37:53;;;;;;;;;;;;;;;26.51;44.57;93790.50;5028715;28;9045;-66
2023/05/21 10:40:21;;;;;;;;;;;;;;;26.52;44.72;93786.47;5024663;28;7212;-66
2023/05/21 10:43:06;;;;;;;;;;;;;;;26.52;45.17;93775.44;5038624;28;7355;-66
2023/05/21 10:46:28;;;;;;;;;;;;;;;26.54;44.52;93778.41;5021877;28;9126;-66
2023/05/21 10:49:06;;;;;;;;;;;;;;;26.56;44.58;93775.84;4965911;28;9074;-66
2023/05/21 10:51:50;;;;;;;;;;;;;;;26.55;44.36;93772.38;4969008;28;9366;-66
2023/05/21 10:54:34;;;;;;;;;;;;;;;26.56;43.80;93779.38;4960764;28;9055;-66
2023/05/21 10:57:38;;;;;;;;;;;;;;;26.58;44.60;93776.06;4969955;28;9363;-65
2023/05/21 11:00:20;;;;;;;;;;;;;;;26.57;43.86;93778.09;4957018;28;7084;-65
2023/05/21 11:02:48;;;;;;;;;;;;;;;26.59;43.67;93775.56;4964273;28;9139;-65
2023/05/21 11:05:14;;;;;;;;;;;;;;;26.59;43.93;93774.81;4976796;28;7228;-65
2023/05/21 11:10:53;;;;;;;;;;;;;;;26.59;43.81;93770.03;4976753;28;9365;-66
2023/05/21 11:13:54;;;;;;;;;;;;;;;26.61;44.04;93769.50;4974210;28;7392;-66
2023/05/21 11:16:51;;;;;;;;;;;;;;;26.60;43.73;93766.00;4972888;28;9479;-66
2023/05/21 11:19:49;;;;;;;;;;;;;;;26.63;43.59;93772.47;4942197;28;7324;-66
2023/05/21 11:22:35;;;;;;;;;;;;;;;26.63;43.50;93770.44;4953172;28;9078;-66
2023/05/21 11:25:17;;;;;;;;;;;;;;;26.64;43.41;93768.44;4954409;28;9073;-65
2023/05/21 11:27:46;;;;;;;;;;;;;;;26.66;43.57;93765.88;4968893;28;6864;-66
2023/05/21 11:31:00;;;;;;;;;;;;;;;26.67;43.51;93770.13;4970283;28;7258;-66
2023/05/21 11:33:46;;;;;;;;;;;;;;;26.65;43.61;93767.91;4966622;28;8780;-66
2023/05/21 11:36:30;;;;;;;;;;;;;;;26.69;44.17;93767.56;4963529;28;7495;-66
2023/05/21 11:39:20;;;;;;;;;;;;;;;26.69;43.49;93764.81;4967826;28;7476;-66
2023/05/21 11:42:07;;;;;;;;;;;;;;;26.71;43.70;93765.00;4968630;28;7042;-65
2023/05/21 11:44:57;;;;;;;;;;;;;;;26.71;43.24;93759.50;4952548;28;8983;-65
2023/05/21 11:47:34;;;;;;;;;;;;;;;26.74;42.99;93766.75;4967205;28;9082;-65
2023/05/21 11:50:15;;;;;;;;;;;;;;;26.74;43.22;93764.00;4950828;28;7268;-66
2023/05/21 11:53:16;;;;;;;;;;;;;;;26.75;43.41;93766.19;4967456;28;6962;-66
2023/05/21 11:55:56;;;;;;;;;;;;;;;26.77;43.38;93763.66;4921105;28;7108;-65
2023/05/21 11:58:22;;;;;;;;;;;;;;;26.77;43.62;93757.41;4950500;28;7160;-66
2023/05/21 12:01:23;;;;;;;;;;;;;;;26.78;43.49;93759.63;4965193;28;7048;-66
2023/05/21 12:04:35;;;;;;;;;;;;;;;26.77;43.80;93762.94;4893122;29;7164;-66
2023/05/21 12:07:16;;;;;;;;;;;;;;;26.75;44.12;93759.97;4906467;29;7039;-65
2023/05/21 12:09:53;;;;;;;;;;;;;;;26.75;43.73;93768.25;4915422;29;9457;-66
2023/05/21 12:12:37;;;;;;;;;;;;;;;26.76;43.53;93755.91;4911224;29;7212;-66
2023/05/21 12:15:24;;;;;;;;;;;;;;;26.78;43.53;93756.88;4894835;29;9030;-66
2023/05/21 12:18:04;;;;;;;;;;;;;;;26.78;44.05;93754.13;4912069;29;7446;-67
2023/05/21 12:20:44;;;;;;;;;;;;;;;26.81;44.12;93757.81;4910477;29;7284;-66
2023/05/21 12:23:30;;;;;;;;;;;;;;;26.81;44.04;93763.34;4895129;29;8554;-65
2023/05/21 12:25:58;;;;;;;;;;;;;;;26.83;43.67;93761.53;4906850;29;9797;-65
2023/05/21 12:28:32;;;;;;;;;;;;;;;26.85;43.28;93763.75;4910740;29;8814;-65
2023/05/21 12:31:03;;;;;;;;;;;;;;;26.86;43.63;93768.72;4913670;28;9066;-65
2023/05/21 12:34:01;;;;;;;;;;;;;;;26.85;43.70;93763.75;4945478;28;9036;-65
2023/05/21 12:37:06;;;;;;;;;;;;;;;26.84;43.93;93765.75;4945808;28;7291;-65
2023/05/21 12:40:28;;;;;;;;;;;;;;;26.86;43.68;93757.69;4977671;28;7237;-66
2023/05/21 12:43:15;;;;;;;;;;;;;;;26.88;43.57;93759.94;4942579;28;9126;-66
2023/05/21 12:46:13;;;;;;;;;;;;;;;26.92;43.71;93762.34;4941392;28;8852;-66
2023/05/21 12:49:17;;;;;;;;;;;;;;;26.89;43.56;93764.16;4911901;29;8998;-66
2023/05/21 12:51:55;;;;;;;;;;;;;;;26.87;43.89;93761.94;4911735;29;7532;-66
2023/05/21 12:55:10;;;;;;;;;;;;;;;26.89;43.71;93761.41;4896796;29;8283;-66
2023/05/21 12:58:13;;;;;;;;;;;;;;;26.90;43.48;93760.16;4935345;28;9483;-66
2023/05/21 13:01:10;;;;;;;;;;;;;;;26.91;43.65;93764.38;4899205;29;9530;-66
2023/05/21 13:03:43;;;;;;;;;;;;;;;26.92;43.65;93760.34;4895279;29;7048;-66
2023/05/21 13:07:02;;;;;;;;;;;;;;;26.94;43.61;93763.31;4915868;29;8740;-66
2023/05/21 13:09:37;;;;;;;;;;;;;;;26.94;43.53;93763.31;4911941;29;7291;-66
2023/05/21 13:12:12;;;;;;;;;;;;;;;26.97;43.51;93767.03;4895602;29;9366;-66
2023/05/21 13:15:00;;;;;;;;;;;;;;;26.98;43.42;93760.97;4910974;29;9014;-66
2023/05/21 13:17:27;;;;;;;;;;;;;;;26.99;43.53;93764.47;4922366;28;8908;-66
2023/05/21 13:20:14;;;;;;;;;;;;;;;26.98;43.53;93760.97;4950259;28;6995;-66
2023/05/21 13:22:46;;;;;;;;;;;;;;;27.02;43.93;93763.38;4934670;28;7282;-65
2023/05/21 13:25:15;;;;;;;;;;;;;;;27.04;43.38;93769.84;4973325;28;7555;-64
2023/05/21 13:27:42;;;;;;;;;;;;;;;27.04;43.11;93764.34;5004374;28;7689;-65
2023/05/21 13:30:35;;;;;;;;;;;;;;;27.04;43.34;93764.34;4987090;28;8884;-64
2023/05/21 13:33:02;;;;;;;;;;;;;;;27.05;43.02;93757.56;5003028;28;7233;-64
2023/05/21 13:35:49;;;;;;;;;;;;;;;27.09;43.24;93771.00;5036947;28;7318;-64
2023/05/21 13:38:30;;;;;;;;;;;;;;;27.13;43.30;93771.41;5045749;28;7225;-65
2023/05/21 13:41:01;;;;;;;;;;;;;;;27.14;43.17;93773.66;5022458;28;7759;-65
2023/05/21 13:43:42;;;;;;;;;;;;;;;27.15;43.25;93772.38;5043727;28;9419;-65
2023/05/21 13:46:10;;;;;;;;;;;;;;;27.13;43.66;93766.66;5044839;28;7160;-65
2023/05/21 13:48:42;;;;;;;;;;;;;;;27.12;43.16;93765.16;5044775;28;8007;-65
2023/05/21 13:51:24;;;;;;;;;;;;;;;27.14;43.08;93770.91;5027763;28;7191;-65
2023/05/21 13:53:51;;;;;;;;;;;;;;;27.18;42.94;93762.28;5043481;28;7359;-65
2023/05/21 13:56:23;;;;;;;;;;;;;;;27.18;43.25;93759.53;5045238;28;7261;-65
2023/05/21 13:58:52;;;;;;;;;;;;;;;27.19;42.96;93761.00;5026834;28;8902;-65
2023/05/21 14:01:19;;;;;;;;;;;;;;;27.21;43.21;93761.22;5022318;28;9128;-65
2023/05/21 14:03:45;;;;;;;;;;;;;;;27.23;43.21;93764.19;5021861;28;7693;-65
2023/05/21 14:06:12;;;;;;;;;;;;;;;27.24;43.16;93766.41;5044365;28;7195;-65
2023/05/21 14:08:48;;;;;;;;;;;;;;;27.27;43.87;93765.34;5044836;28;9080;-65
2023/05/21 14:11:38;;;;;;;;;;;;;;;27.30;43.49;93760.75;5029751;28;8814;-65
2023/05/21 14:14:04;;;;;;;;;;;;;;;27.29;43.73;93759.28;5028494;28;7254;-65
2023/05/21 14:16:30;;;;;;;;;;;;;;;27.25;43.85;93767.88;5030490;28;7204;-65
2023/05/21 14:18:59;;;;;;;;;;;;;;;27.27;43.57;93765.34;5039316;28;9030;-65
2023/05/21 14:21:28;;;;;;;;;;;;;;;27.29;43.59;93756.50;5041115;28;7252;-65
2023/05/21 14:23:53;;;;;;;;;;;;;;;27.28;43.88;93757.78;5025732;28;8241;-65
2023/05/21 14:26:22;;;;;;;;;;;;;;;27.31;43.89;93760.22;5040108;28;7036;-65